Time;durP1;ratioP1;P1;durP2;ratioP2;P2;SDS_P1;SDS_P2;PMS_P1;PMS_P2;Temp;Humidity;BMP_temperature;BMP_pressure;BME280_temperature;BME280_humidity;BME280_pressure;Samples;Min_cycle;Max_cycle;Signal;HPM_P1;HPM_P2
2022/10/02 00:00:40;;;;;;;;;;;;;;;;;;4926765;29;19927;-32
2022/10/02 00:03:06;;;;;;;;;;;;;;;;;;4927641;29;20159;-32
2022/10/02 00:05:31;;;;;;;;;;;;;;;;;;4931552;29;19914;-32
2022/10/02 00:07:56;;;;;;;;;;;;;;;;;;4926710;29;20419;-32
2022/10/02 00:10:21;;;;;;;;;;;;;;;;;;4927122;29;19925;-32
2022/10/02 00:12:46;;;;;;;;;;;;;;;;;;4928138;29;19922;-32
2022/10/02 00:15:12;;;;;;;;;;;;;;;;;;4927856;29;19925;-32
2022/10/02 00:17:37;;;;;;;;;;;;;;;;;;4929582;29;19918;-32
2022/10/02 00:20:02;;;;;;;;;;;;;;;;;;4928912;29;19915;-32
2022/10/02 00:22:27;;;;;;;;;;;;;;;;;;4928361;29;19978;-32
2022/10/02 00:24:52;;;;;;;;;;;;;;;;;;4926626;29;19967;-32
2022/10/02 00:27:17;;;;;;;;;;;;;;;;;;4927721;29;19926;-32
2022/10/02 00:29:42;;;;;;;;;;;;;;;;;;4930350;29;20502;-32
2022/10/02 00:32:09;;;;;;;;;;;;;;;;;;4929029;29;19926;-32
2022/10/02 00:34:34;;;;;;;;;;;;;;;;;;4929503;29;19915;-32
2022/10/02 00:36:59;;;;;;;;;;;;;;;;;;4929736;29;19925;-33
2022/10/02 00:39:24;;;;;;;;;;;;;;;;;;4928835;29;20317;-34
2022/10/02 00:41:49;;;;;;;;;;;;;;;;;;4927280;29;19915;-33
2022/10/02 00:44:15;;;;;;;;;;;;;;;;;;4927544;29;20369;-34
2022/10/02 00:46:40;;;;;;;;;;;;;;;;;;4926624;29;19934;-34
2022/10/02 00:49:05;;;;;;;;;;;;;;;;;;4927097;29;19925;-34
2022/10/02 00:51:30;;;;;;;;;;;;;;;;;;4929153;29;20373;-34
2022/10/02 00:53:55;;;;;;;;;;;;;;;;;;4927430;29;19915;-34
2022/10/02 00:56:20;;;;;;;;;;;;;;;;;;4922035;29;20498;-34
2022/10/02 00:58:46;;;;;;;;;;;;;;;;;;4927906;29;20120;-34
2022/10/02 01:01:11;;;;;;;;;;;;;;;;;;4929762;29;20452;-33
2022/10/02 01:03:36;;;;;;;;;;;;;;;;;;4924677;29;19994;-34
2022/10/02 01:06:01;;;;;;;;;;;;;;;;;;4927964;29;19970;-34
2022/10/02 01:08:27;;;;;;;;;;;;;;;;;;4929908;29;20039;-33
2022/10/02 01:10:52;;;;;;;;;;;;;;;;;;4930528;29;19938;-34
2022/10/02 01:13:17;;;;;;;;;;;;;;;;;;4927595;29;20377;-34
2022/10/02 01:15:42;;;;;;;;;;;;;;;;;;4928280;29;19950;-34
2022/10/02 01:18:07;;;;;;;;;;;;;;;;;;4928241;29;20261;-33
2022/10/02 01:20:33;;;;;;;;;;;;;;;;;;4929429;29;19914;-34
2022/10/02 01:22:58;;;;;;;;;;;;;;;;;;4927800;29;20266;-34
2022/10/02 01:25:23;;;;;;;;;;;;;;;;;;4928114;29;19966;-34
2022/10/02 01:27:48;;;;;;;;;;;;;;;;;;4928007;29;19919;-33
2022/10/02 01:30:13;;;;;;;;;;;;;;;;;;4931836;29;20350;-34
2022/10/02 01:32:39;;;;;;;;;;;;;;;;;;4932268;29;19915;-34
2022/10/02 01:35:04;;;;;;;;;;;;;;;;;;4928240;29;20407;-34
2022/10/02 01:37:29;;;;;;;;;;;;;;;;;;4929225;29;20392;-33
2022/10/02 01:39:55;;;;;;;;;;;;;;;;;;4924909;29;19926;-33
2022/10/02 01:42:20;;;;;;;;;;;;;;;;;;4924570;29;20414;-33
2022/10/02 01:44:45;;;;;;;;;;;;;;;;;;4928716;29;19918;-34
2022/10/02 01:47:10;;;;;;;;;;;;;;;;;;4928323;29;19937;-34
2022/10/02 01:49:35;;;;;;;;;;;;;;;;;;4929485;29;19925;-34
2022/10/02 01:52:00;;;;;;;;;;;;;;;;;;4927857;29;19929;-34
2022/10/02 01:54:25;;;;;;;;;;;;;;;;;;4927286;29;19925;-34
2022/10/02 01:56:51;;;;;;;;;;;;;;;;;;4929158;29;19914;-34
2022/10/02 01:59:16;;;;;;;;;;;;;;;;;;4927129;29;19915;-34
2022/10/02 02:01:41;;;;;;;;;;;;;;;;;;4931194;29;20341;-34
2022/10/02 02:04:06;;;;;;;;;;;;;;;;;;4928453;29;19923;-34
2022/10/02 02:06:31;;;;;;;;;;;;;;;;;;4928488;29;19970;-34
2022/10/02 02:08:56;;;;;;;;;;;;;;;;;;4925893;29;19915;-34
2022/10/02 02:11:21;;;;;;;;;;;;;;;;;;4928886;29;19918;-34
2022/10/02 02:13:47;;;;;;;;;;;;;;;;;;4921105;29;19923;-34
2022/10/02 02:16:12;;;;;;;;;;;;;;;;;;4919490;29;19919;-34
2022/10/02 02:18:37;;;;;;;;;;;;;;;;;;4918941;29;19923;-34
2022/10/02 02:21:02;;;;;;;;;;;;;;;;;;4919800;29;19946;-34
2022/10/02 02:23:27;;;;;;;;;;;;;;;;;;4921372;29;19954;-34
2022/10/02 02:25:52;;;;;;;;;;;;;;;;;;4924816;29;19918;-34
2022/10/02 02:28:18;;;;;;;;;;;;;;;;;;4924654;29;19918;-33
2022/10/02 02:30:43;;;;;;;;;;;;;;;;;;4927678;29;19915;-34
2022/10/02 02:33:08;;;;;;;;;;;;;;;;;;4924869;29;20334;-34
2022/10/02 02:35:33;;;;;;;;;;;;;;;;;;4930927;29;19915;-33
2022/10/02 02:37:58;;;;;;;;;;;;;;;;;;4931705;29;20313;-34
2022/10/02 02:40:24;;;;;;;;;;;;;;;;;;4928768;29;19919;-34
2022/10/02 02:42:49;;;;;;;;;;;;;;;;;;4942523;28;19918;-34
2022/10/02 02:45:14;;;;;;;;;;;;;;;;;;4929547;29;19926;-33
2022/10/02 02:47:39;;;;;;;;;;;;;;;;;;4930444;29;19923;-33
2022/10/02 02:50:04;;;;;;;;;;;;;;;;;;4930327;29;20381;-34
2022/10/02 02:52:29;;;;;;;;;;;;;;;;;;4929846;29;19926;-33
2022/10/02 02:54:55;;;;;;;;;;;;;;;;;;4927826;29;19919;-34
2022/10/02 02:57:20;;;;;;;;;;;;;;;;;;4931043;29;19946;-34
2022/10/02 02:59:45;;;;;;;;;;;;;;;;;;4929599;29;20353;-34
2022/10/02 03:02:10;;;;;;;;;;;;;;;;;;4929528;29;19918;-34
2022/10/02 03:04:35;;;;;;;;;;;;;;;;;;4930633;29;19923;-34
2022/10/02 03:07:01;;;;;;;;;;;;;;;;;;4930130;29;19926;-34
2022/10/02 03:09:26;;;;;;;;;;;;;;;;;;4928550;29;20304;-34
2022/10/02 03:11:51;;;;;;;;;;;;;;;;;;4930509;29;19918;-35
2022/10/02 03:14:16;;;;;;;;;;;;;;;;;;4929782;29;20385;-34
2022/10/02 03:16:41;;;;;;;;;;;;;;;;;;4929888;29;19914;-34
2022/10/02 03:19:06;;;;;;;;;;;;;;;;;;4929876;29;20373;-34
2022/10/02 03:21:31;;;;;;;;;;;;;;;;;;4930573;29;19922;-34
2022/10/02 03:23:57;;;;;;;;;;;;;;;;;;4927907;29;20045;-34
2022/10/02 03:26:22;;;;;;;;;;;;;;;;;;4929905;29;20296;-34
2022/10/02 03:28:47;;;;;;;;;;;;;;;;;;4931226;29;19919;-34
2022/10/02 03:31:12;;;;;;;;;;;;;;;;;;4930763;29;19919;-34
2022/10/02 03:33:37;;;;;;;;;;;;;;;;;;4930688;29;19926;-34
2022/10/02 03:36:02;;;;;;;;;;;;;;;;;;4932822;29;19926;-34
2022/10/02 03:38:28;;;;;;;;;;;;;;;;;;4929415;29;20350;-34
2022/10/02 03:40:53;;;;;;;;;;;;;;;;;;4928801;29;20010;-34
2022/10/02 03:43:18;;;;;;;;;;;;;;;;;;4929668;29;20342;-34
2022/10/02 03:45:43;;;;;;;;;;;;;;;;;;4929949;29;19922;-33
2022/10/02 03:48:08;;;;;;;;;;;;;;;;;;4927960;29;19919;-34
2022/10/02 03:50:34;;;;;;;;;;;;;;;;;;4929375;29;20270;-34
2022/10/02 03:52:59;;;;;;;;;;;;;;;;;;4930122;29;19922;-34
2022/10/02 03:55:24;;;;;;;;;;;;;;;;;;4928549;29;19975;-33
2022/10/02 03:57:49;;;;;;;;;;;;;;;;;;4933343;29;19915;-34
2022/10/02 04:00:16;;;;;;;;;;;;;;;;;;4925826;29;19922;-34
2022/10/02 04:02:42;;;;;;;;;;;;;;;;;;4931970;29;19919;-33
2022/10/02 04:05:09;;;;;;;;;;;;;;;;;;4928209;29;20216;-34
2022/10/02 04:07:34;;;;;;;;;;;;;;;;;;4929462;29;20293;-33
2022/10/02 04:09:59;;;;;;;;;;;;;;;;;;4928177;29;19930;-34
2022/10/02 04:12:25;;;;;;;;;;;;;;;;;;4928892;29;19923;-33
2022/10/02 04:14:50;;;;;;;;;;;;;;;;;;4930468;29;19937;-34
2022/10/02 04:17:15;;;;;;;;;;;;;;;;;;4928244;29;19914;-33
2022/10/02 04:19:41;;;;;;;;;;;;;;;;;;4929910;29;20413;-33
2022/10/02 04:22:06;;;;;;;;;;;;;;;;;;4929445;29;19919;-34
2022/10/02 04:24:31;;;;;;;;;;;;;;;;;;4927748;29;19919;-34
2022/10/02 04:26:56;;;;;;;;;;;;;;;;;;4931709;29;19929;-33
2022/10/02 04:29:22;;;;;;;;;;;;;;;;;;4927525;29;20042;-34
2022/10/02 04:31:47;;;;;;;;;;;;;;;;;;4930517;29;19915;-34
2022/10/02 04:34:12;;;;;;;;;;;;;;;;;;4931164;29;19923;-34
2022/10/02 04:36:37;;;;;;;;;;;;;;;;;;4939086;29;20144;-34
2022/10/02 04:39:03;;;;;;;;;;;;;;;;;;4934069;29;19980;-34
2022/10/02 04:41:28;;;;;;;;;;;;;;;;;;4936227;29;19928;-33
2022/10/02 04:43:53;;;;;;;;;;;;;;;;;;4940173;29;19930;-34
2022/10/02 04:46:18;;;;;;;;;;;;;;;;;;4936003;29;19927;-34
2022/10/02 04:48:43;;;;;;;;;;;;;;;;;;4934336;29;19965;-33
2022/10/02 04:51:08;;;;;;;;;;;;;;;;;;4933366;29;20011;-34
2022/10/02 04:53:34;;;;;;;;;;;;;;;;;;4932130;29;20123;-33
2022/10/02 04:55:59;;;;;;;;;;;;;;;;;;4929561;29;20186;-34
2022/10/02 04:58:24;;;;;;;;;;;;;;;;;;4926456;29;20014;-34
2022/10/02 05:00:49;;;;;;;;;;;;;;;;;;4924733;29;19946;-33
2022/10/02 05:03:14;;;;;;;;;;;;;;;;;;4928339;29;20389;-33
2022/10/02 05:05:39;;;;;;;;;;;;;;;;;;4928328;29;20369;-34
2022/10/02 05:08:05;;;;;;;;;;;;;;;;;;4927100;29;19930;-34
2022/10/02 05:10:30;;;;;;;;;;;;;;;;;;4928462;29;19950;-33
2022/10/02 05:12:55;;;;;;;;;;;;;;;;;;4926642;29;20003;-33
2022/10/02 05:15:20;;;;;;;;;;;;;;;;;;4933428;29;19919;-33
2022/10/02 05:17:45;;;;;;;;;;;;;;;;;;4931376;29;20372;-34
2022/10/02 05:20:18;;;;;;;;;;;;;;;;;;5058452;28;20298;-32
2022/10/02 05:22:43;;;;;;;;;;;;;;;;;;5038549;28;20007;-34
2022/10/02 05:25:08;;;;;;;;;;;;;;;;;;5034518;28;20367;-32
2022/10/02 05:27:33;;;;;;;;;;;;;;;;;;5043845;28;19991;-33
2022/10/02 05:29:58;;;;;;;;;;;;;;;;;;5041630;28;20175;-33
2022/10/02 05:32:24;;;;;;;;;;;;;;;;;;5039475;28;20015;-31
2022/10/02 05:34:49;;;;;;;;;;;;;;;;;;5040944;28;19917;-31
2022/10/02 05:37:14;;;;;;;;;;;;;;;;;;5043066;28;19964;-31
2022/10/02 05:39:39;;;;;;;;;;;;;;;;;;5043079;28;19925;-31
2022/10/02 05:42:04;;;;;;;;;;;;;;;;;;5041047;28;19943;-31
2022/10/02 05:44:33;;;;;;;;;;;;;;;;;;5043227;28;19921;-31
2022/10/02 05:47:00;;;;;;;;;;;;;;;;;;5042752;28;20094;-31
2022/10/02 05:49:25;;;;;;;;;;;;;;;;;;5043620;28;20358;-31
2022/10/02 05:51:52;;;;;;;;;;;;;;;;;;5039663;28;19956;-31
2022/10/02 05:54:17;;;;;;;;;;;;;;;;;;5038064;28;19967;-31
2022/10/02 05:56:42;;;;;;;;;;;;;;;;;;5042158;28;19956;-31
2022/10/02 05:59:07;;;;;;;;;;;;;;;;;;5040108;28;19989;-31
2022/10/02 06:01:32;;;;;;;;;;;;;;;;;;5042560;28;20012;-31
2022/10/02 06:03:58;;;;;;;;;;;;;;;;;;5040479;28;19916;-31
2022/10/02 06:06:23;;;;;;;;;;;;;;;;;;5043025;28;20370;-31
2022/10/02 06:08:48;;;;;;;;;;;;;;;;;;5038146;28;19978;-31
2022/10/02 06:11:13;;;;;;;;;;;;;;;;;;5038750;28;20382;-31
2022/10/02 06:13:38;;;;;;;;;;;;;;;;;;5045255;28;19960;-31
2022/10/02 06:16:03;;;;;;;;;;;;;;;;;;5042078;28;19921;-31
2022/10/02 06:18:30;;;;;;;;;;;;;;;;;;5043913;28;19935;-31
2022/10/02 06:20:55;;;;;;;;;;;;;;;;;;5037792;28;20019;-31
2022/10/02 06:23:20;;;;;;;;;;;;;;;;;;5039222;28;20434;-31
2022/10/02 06:25:45;;;;;;;;;;;;;;;;;;5039711;28;19920;-31
2022/10/02 06:28:11;;;;;;;;;;;;;;;;;;5040121;28;20520;-31
2022/10/02 06:30:36;;;;;;;;;;;;;;;;;;5033902;28;19921;-31
2022/10/02 06:33:01;;;;;;;;;;;;;;;;;;5028333;28;19920;-31
2022/10/02 06:35:26;;;;;;;;;;;;;;;;;;5027931;28;21353;-31
2022/10/02 06:37:51;;;;;;;;;;;;;;;;;;5028934;28;19917;-31
2022/10/02 06:40:16;;;;;;;;;;;;;;;;;;5028266;28;19945;-31
2022/10/02 06:42:42;;;;;;;;;;;;;;;;;;5029981;28;20007;-31
2022/10/02 06:45:07;;;;;;;;;;;;;;;;;;5025530;28;20008;-31
2022/10/02 06:47:34;;;;;;;;;;;;;;;;;;5029598;28;19913;-31
2022/10/02 06:49:59;;;;;;;;;;;;;;;;;;5020281;28;19925;-31
2022/10/02 06:52:25;;;;;;;;;;;;;;;;;;5017240;28;20501;-31
2022/10/02 06:54:50;;;;;;;;;;;;;;;;;;5020603;28;20072;-31
2022/10/02 06:57:15;;;;;;;;;;;;;;;;;;5022703;28;19920;-31
2022/10/02 06:59:40;;;;;;;;;;;;;;;;;;5028252;28;20351;-31
2022/10/02 07:02:05;;;;;;;;;;;;;;;;;;5022085;28;19976;-31
2022/10/02 07:04:31;;;;;;;;;;;;;;;;;;5026090;28;19917;-31
2022/10/02 07:06:56;;;;;;;;;;;;;;;;;;5028217;28;19921;-31
2022/10/02 07:09:21;;;;;;;;;;;;;;;;;;5024205;28;19921;-31
2022/10/02 07:11:46;;;;;;;;;;;;;;;;;;5025433;28;19921;-31
2022/10/02 07:14:11;;;;;;;;;;;;;;;;;;5026762;28;20399;-31
2022/10/02 07:16:37;;;;;;;;;;;;;;;;;;5029125;28;19924;-31
2022/10/02 07:19:02;;;;;;;;;;;;;;;;;;5029388;28;19921;-31
2022/10/02 07:21:27;;;;;;;;;;;;;;;;;;5019982;28;19917;-32
2022/10/02 07:23:52;;;;;;;;;;;;;;;;;;5022000;28;19917;-31
2022/10/02 07:26:17;;;;;;;;;;;;;;;;;;5024057;28;19917;-31
2022/10/02 07:28:42;;;;;;;;;;;;;;;;;;5020322;28;19969;-31
2022/10/02 07:31:08;;;;;;;;;;;;;;;;;;5022028;28;20371;-31
2022/10/02 07:33:33;;;;;;;;;;;;;;;;;;5022292;28;19921;-31
2022/10/02 07:35:58;;;;;;;;;;;;;;;;;;5018993;28;19983;-31
2022/10/02 07:38:23;;;;;;;;;;;;;;;;;;5019950;28;20291;-31
2022/10/02 07:40:48;;;;;;;;;;;;;;;;;;5022482;28;20000;-31
2022/10/02 07:43:13;;;;;;;;;;;;;;;;;;5019340;28;20008;-31
2022/10/02 07:45:40;;;;;;;;;;;;;;;;;;5023374;28;19921;-32
2022/10/02 07:48:05;;;;;;;;;;;;;;;;;;5020329;28;20015;-31
2022/10/02 07:50:31;;;;;;;;;;;;;;;;;;5019219;28;20035;-31
2022/10/02 07:52:56;;;;;;;;;;;;;;;;;;5021581;28;20470;-31
2022/10/02 07:55:21;;;;;;;;;;;;;;;;;;5021300;28;20403;-31
2022/10/02 07:57:48;;;;;;;;;;;;;;;;;;5022428;28;19913;-31
2022/10/02 08:00:14;;;;;;;;;;;;;;;;;;5022444;28;19921;-31
2022/10/02 08:02:39;;;;;;;;;;;;;;;;;;5026043;28;20068;-31
2022/10/02 08:05:04;;;;;;;;;;;;;;;;;;5026854;28;19921;-31
2022/10/02 08:07:30;;;;;;;;;;;;;;;;;;5026315;28;20180;-31
2022/10/02 08:09:55;;;;;;;;;;;;;;;;;;5022607;28;19982;-31
2022/10/02 08:12:20;;;;;;;;;;;;;;;;;;5023033;28;21062;-31
2022/10/02 08:14:45;;;;;;;;;;;;;;;;;;5021951;28;19913;-31
2022/10/02 08:17:10;;;;;;;;;;;;;;;;;;5016203;28;20267;-31
2022/10/02 08:19:35;;;;;;;;;;;;;;;;;;5022949;28;19921;-31
2022/10/02 08:22:00;;;;;;;;;;;;;;;;;;5023446;28;19982;-31
2022/10/02 08:24:26;;;;;;;;;;;;;;;;;;5023491;28;19914;-31
2022/10/02 08:26:51;;;;;;;;;;;;;;;;;;5024808;28;19920;-31
2022/10/02 08:29:16;;;;;;;;;;;;;;;;;;5024284;28;19920;-31
2022/10/02 08:31:41;;;;;;;;;;;;;;;;;;5022880;28;19959;-31
2022/10/02 08:34:06;;;;;;;;;;;;;;;;;;5021815;28;20383;-31
2022/10/02 08:36:31;;;;;;;;;;;;;;;;;;5021958;28;19913;-31
2022/10/02 08:38:56;;;;;;;;;;;;;;;;;;5024843;28;19921;-31
2022/10/02 08:41:22;;;;;;;;;;;;;;;;;;5025189;28;20390;-31
2022/10/02 08:43:47;;;;;;;;;;;;;;;;;;5021152;28;19921;-31
2022/10/02 08:46:12;;;;;;;;;;;;;;;;;;5020581;28;19941;-31
2022/10/02 08:48:38;;;;;;;;;;;;;;;;;;5019633;28;20153;-31
2022/10/02 08:51:04;;;;;;;;;;;;;;;;;;5025742;28;19939;-31
2022/10/02 08:53:29;;;;;;;;;;;;;;;;;;5022471;28;19913;-31
2022/10/02 08:55:54;;;;;;;;;;;;;;;;;;5022171;28;19913;-31
2022/10/02 08:58:19;;;;;;;;;;;;;;;;;;5021278;28;19925;-31
2022/10/02 09:00:44;;;;;;;;;;;;;;;;;;5022926;28;19921;-31
2022/10/02 09:03:09;;;;;;;;;;;;;;;;;;5024997;28;20473;-31
2022/10/02 09:05:38;;;;;;;;;;;;;;;;;;5022695;28;19913;-31
2022/10/02 09:08:07;;;;;;;;;;;;;;;;;;5026140;28;20175;-31
2022/10/02 09:10:32;;;;;;;;;;;;;;;;;;5019255;28;20099;-31
2022/10/02 09:12:57;;;;;;;;;;;;;;;;;;5022337;28;19918;-31
2022/10/02 09:15:22;;;;;;;;;;;;;;;;;;5016670;28;20148;-31
2022/10/02 09:17:47;;;;;;;;;;;;;;;;;;5018024;28;19921;-31
2022/10/02 09:20:13;;;;;;;;;;;;;;;;;;5021183;28;19925;-31
2022/10/02 09:22:38;;;;;;;;;;;;;;;;;;5020724;28;20020;-31
2022/10/02 09:25:03;;;;;;;;;;;;;;;;;;5022597;28;19936;-31
2022/10/02 09:27:28;;;;;;;;;;;;;;;;;;5024660;28;19913;-31
2022/10/02 09:29:54;;;;;;;;;;;;;;;;;;5026623;28;19924;-31
2022/10/02 09:32:20;;;;;;;;;;;;;;;;;;5026336;28;19921;-31
2022/10/02 09:34:46;;;;;;;;;;;;;;;;;;5025737;28;19958;-31
2022/10/02 09:37:12;;;;;;;;;;;;;;;;;;5026821;28;19927;-31
2022/10/02 09:39:37;;;;;;;;;;;;;;;;;;5026106;28;19999;-31
2022/10/02 09:42:04;;;;;;;;;;;;;;;;;;5028211;28;19913;-31
2022/10/02 09:44:30;;;;;;;;;;;;;;;;;;5022433;28;19917;-31
2022/10/02 09:46:55;;;;;;;;;;;;;;;;;;5024063;28;19913;-31
2022/10/02 09:49:20;;;;;;;;;;;;;;;;;;5038885;28;19921;-31
2022/10/02 09:51:45;;;;;;;;;;;;;;;;;;5019748;28;20355;-31
2022/10/02 09:54:10;;;;;;;;;;;;;;;;;;5024199;28;20552;-31
2022/10/02 09:56:35;;;;;;;;;;;;;;;;;;5022824;28;20052;-31
2022/10/02 09:59:01;;;;;;;;;;;;;;;;;;5022320;28;19921;-31
2022/10/02 10:01:26;;;;;;;;;;;;;;;;;;5025436;28;20394;-31
2022/10/02 10:03:51;;;;;;;;;;;;;;;;;;5021036;28;19939;-31
2022/10/02 10:06:16;;;;;;;;;;;;;;;;;;5026991;28;20247;-31
2022/10/02 10:08:41;;;;;;;;;;;;;;;;;;5029726;28;19918;-31
2022/10/02 10:11:06;;;;;;;;;;;;;;;;;;5028439;28;19952;-31
2022/10/02 10:13:32;;;;;;;;;;;;;;;;;;5025460;28;19913;-31
2022/10/02 10:15:57;;;;;;;;;;;;;;;;;;5022524;28;20338;-31
2022/10/02 10:18:25;;;;;;;;;;;;;;;;;;5023196;28;20003;-31
2022/10/02 10:20:50;;;;;;;;;;;;;;;;;;5025891;28;20044;-31
2022/10/02 10:23:17;;;;;;;;;;;;;;;;;;5027042;28;20338;-31
2022/10/02 10:25:42;;;;;;;;;;;;;;;;;;5024886;28;19921;-31
2022/10/02 10:28:07;;;;;;;;;;;;;;;;;;5025182;28;19913;-31
2022/10/02 10:30:33;;;;;;;;;;;;;;;;;;5025599;28;20378;-31
2022/10/02 10:32:59;;;;;;;;;;;;;;;;;;5019472;28;20156;-31
2022/10/02 10:35:24;;;;;;;;;;;;;;;;;;5024910;28;19912;-31
2022/10/02 10:40:34;;;;;;;;;;;;;;;;;;5021650;28;19921;-31
2022/10/02 10:43:01;;;;;;;;;;;;;;;;;;5022915;28;20288;-31
2022/10/02 10:45:26;;;;;;;;;;;;;;;;;;5025031;28;20004;-31
2022/10/02 10:47:51;;;;;;;;;;;;;;;;;;5022566;28;20066;-31
2022/10/02 10:50:16;;;;;;;;;;;;;;;;;;5025517;28;19924;-31
2022/10/02 10:52:41;;;;;;;;;;;;;;;;;;5026222;28;19920;-31
2022/10/02 10:55:06;;;;;;;;;;;;;;;;;;5021575;28;19963;-31
2022/10/02 10:57:32;;;;;;;;;;;;;;;;;;5022554;28;19917;-31
2022/10/02 10:59:57;;;;;;;;;;;;;;;;;;5023846;28;20012;-31
2022/10/02 11:02:22;;;;;;;;;;;;;;;;;;5024069;28;19913;-31
2022/10/02 11:04:47;;;;;;;;;;;;;;;;;;5025875;28;19913;-31
2022/10/02 11:07:15;;;;;;;;;;;;;;;;;;5028716;28;20412;-31
2022/10/02 11:09:40;;;;;;;;;;;;;;;;;;5023466;28;19921;-31
2022/10/02 11:12:05;;;;;;;;;;;;;;;;;;5021421;28;20374;-31
2022/10/02 11:14:30;;;;;;;;;;;;;;;;;;5025476;28;20046;-32
2022/10/02 11:16:55;;;;;;;;;;;;;;;;;;5020602;28;19924;-31
2022/10/02 11:19:21;;;;;;;;;;;;;;;;;;5021730;28;20084;-31
2022/10/02 11:21:46;;;;;;;;;;;;;;;;;;5019192;28;19921;-32
2022/10/02 11:24:12;;;;;;;;;;;;;;;;;;5018064;28;19917;-31
2022/10/02 11:26:37;;;;;;;;;;;;;;;;;;5022977;28;19924;-31
2022/10/02 11:29:02;;;;;;;;;;;;;;;;;;5025225;28;19914;-31
2022/10/02 11:31:28;;;;;;;;;;;;;;;;;;5023940;28;20092;-33
2022/10/02 11:33:53;;;;;;;;;;;;;;;;;;5024470;28;19917;-34
2022/10/02 11:36:19;;;;;;;;;;;;;;;;;;5024999;28;19924;-34
2022/10/02 11:38:44;;;;;;;;;;;;;;;;;;5026709;28;20230;-33
2022/10/02 11:41:09;;;;;;;;;;;;;;;;;;5024443;28;19917;-33
2022/10/02 11:43:34;;;;;;;;;;;;;;;;;;5027139;28;19913;-33
2022/10/02 11:46:00;;;;;;;;;;;;;;;;;;5023933;28;19920;-34
2022/10/02 11:48:25;;;;;;;;;;;;;;;;;;5026910;28;19913;-33
2022/10/02 11:50:50;;;;;;;;;;;;;;;;;;5022815;28;20385;-33
2022/10/02 11:53:15;;;;;;;;;;;;;;;;;;5024662;28;19929;-34
2022/10/02 11:55:42;;;;;;;;;;;;;;;;;;5025667;28;19964;-33
2022/10/02 11:58:07;;;;;;;;;;;;;;;;;;5027660;28;19971;-34
2022/10/02 12:00:32;;;;;;;;;;;;;;;;;;5027832;28;19912;-34
2022/10/02 12:03:00;;;;;;;;;;;;;;;;;;5021399;28;20466;-33
2022/10/02 12:05:25;;;;;;;;;;;;;;;;;;5020967;28;19916;-34
2022/10/02 12:07:51;;;;;;;;;;;;;;;;;;5024308;28;19921;-33
2022/10/02 12:10:16;;;;;;;;;;;;;;;;;;5024463;28;20326;-33
2022/10/02 12:12:41;;;;;;;;;;;;;;;;;;5023935;28;19917;-35
2022/10/02 12:15:07;;;;;;;;;;;;;;;;;;5021027;28;19980;-35
2022/10/02 12:17:32;;;;;;;;;;;;;;;;;;5025550;28;19921;-33
2022/10/02 12:28:25;;;;;;;;;;;;;;;;;;5025750;28;19924;-33
2022/10/02 12:30:51;;;;;;;;;;;;;;;;;;5022762;28;19921;-34
2022/10/02 12:33:16;;;;;;;;;;;;;;;;;;5023936;28;19967;-34
2022/10/02 12:35:41;;;;;;;;;;;;;;;;;;5020163;28;20359;-34
2022/10/02 12:38:06;;;;;;;;;;;;;;;;;;5024912;28;20323;-35
2022/10/02 12:40:31;;;;;;;;;;;;;;;;;;5021947;28;20007;-33
2022/10/02 12:42:59;;;;;;;;;;;;;;;;;;5024476;28;19917;-35
2022/10/02 12:45:24;;;;;;;;;;;;;;;;;;5024058;28;20037;-34
2022/10/02 12:47:49;;;;;;;;;;;;;;;;;;5024251;28;19921;-34
2022/10/02 12:50:15;;;;;;;;;;;;;;;;;;5019641;28;20008;-34
2022/10/02 12:52:41;;;;;;;;;;;;;;;;;;5023240;28;19963;-34
2022/10/02 12:55:07;;;;;;;;;;;;;;;;;;5021337;28;20390;-34
2022/10/02 13:00:16;;;;;;;;;;;;;;;;;;5022530;28;19930;-34
2022/10/02 13:02:41;;;;;;;;;;;;;;;;;;5025898;28;20021;-33
2022/10/02 13:05:06;;;;;;;;;;;;;;;;;;5025183;28;19921;-34
2022/10/02 13:07:31;;;;;;;;;;;;;;;;;;5019152;28;20097;-35
2022/10/02 13:09:56;;;;;;;;;;;;;;;;;;5016970;28;20510;-33
2022/10/02 13:12:21;;;;;;;;;;;;;;;;;;5020493;28;19917;-34
2022/10/02 13:14:46;;;;;;;;;;;;;;;;;;5023561;28;19917;-34
2022/10/02 13:17:12;;;;;;;;;;;;;;;;;;5025475;28;20353;-33
2022/10/02 13:19:38;;;;;;;;;;;;;;;;;;5014650;28;19990;-33
2022/10/02 13:22:03;;;;;;;;;;;;;;;;;;5018728;28;19921;-34
2022/10/02 13:24:28;;;;;;;;;;;;;;;;;;5023932;28;19913;-34
2022/10/02 13:26:53;;;;;;;;;;;;;;;;;;5020539;28;19913;-34
2022/10/02 13:29:18;;;;;;;;;;;;;;;;;;5024603;28;20453;-35
2022/10/02 13:31:43;;;;;;;;;;;;;;;;;;5015680;28;19917;-34
2022/10/02 13:34:09;;;;;;;;;;;;;;;;;;5019426;28;19913;-34
2022/10/02 13:36:34;;;;;;;;;;;;;;;;;;5025024;28;19913;-34
2022/10/02 13:38:59;;;;;;;;;;;;;;;;;;5017851;28;20012;-34
2022/10/02 13:41:24;;;;;;;;;;;;;;;;;;5025420;28;19960;-35
2022/10/02 13:43:49;;;;;;;;;;;;;;;;;;5024742;28;19920;-34
2022/10/02 13:46:15;;;;;;;;;;;;;;;;;;5024242;28;20042;-35
2022/10/02 13:48:40;;;;;;;;;;;;;;;;;;5022729;28;19921;-35
2022/10/02 13:51:05;;;;;;;;;;;;;;;;;;5024020;28;19913;-34
2022/10/02 13:53:30;;;;;;;;;;;;;;;;;;5022966;28;19942;-35
2022/10/02 13:55:55;;;;;;;;;;;;;;;;;;5023743;28;20286;-34
2022/10/02 13:58:20;;;;;;;;;;;;;;;;;;5023609;28;19921;-34
2022/10/02 14:00:46;;;;;;;;;;;;;;;;;;5023377;28;19939;-34
2022/10/02 14:03:11;;;;;;;;;;;;;;;;;;5025064;28;19917;-35
2022/10/02 14:05:36;;;;;;;;;;;;;;;;;;5025046;28;19913;-34
2022/10/02 14:08:02;;;;;;;;;;;;;;;;;;5025855;28;19920;-34
2022/10/02 14:10:27;;;;;;;;;;;;;;;;;;5025053;28;19924;-34
2022/10/02 14:12:52;;;;;;;;;;;;;;;;;;5025441;28;19982;-33
2022/10/02 14:15:18;;;;;;;;;;;;;;;;;;5027073;28;19913;-33
2022/10/02 14:17:43;;;;;;;;;;;;;;;;;;5024367;28;20912;-35
2022/10/02 14:20:09;;;;;;;;;;;;;;;;;;5025514;28;19917;-34
2022/10/02 14:22:34;;;;;;;;;;;;;;;;;;5028894;28;20477;-34
2022/10/02 14:24:59;;;;;;;;;;;;;;;;;;5023236;28;19964;-33
2022/10/02 14:27:24;;;;;;;;;;;;;;;;;;5028592;28;19913;-35
2022/10/02 14:29:50;;;;;;;;;;;;;;;;;;5019888;28;19975;-34
2022/10/02 14:32:15;;;;;;;;;;;;;;;;;;5028251;28;20059;-35
2022/10/02 14:34:40;;;;;;;;;;;;;;;;;;5022741;28;20690;-34
2022/10/02 14:37:05;;;;;;;;;;;;;;;;;;5028011;28;19913;-34
2022/10/02 14:39:30;;;;;;;;;;;;;;;;;;5026291;28;20279;-35
2022/10/02 14:41:56;;;;;;;;;;;;;;;;;;5024794;28;19947;-34
2022/10/02 14:44:22;;;;;;;;;;;;;;;;;;5029748;28;19925;-33
2022/10/02 14:46:48;;;;;;;;;;;;;;;;;;5027313;28;19913;-34
2022/10/02 14:49:13;;;;;;;;;;;;;;;;;;5025315;28;19963;-34
2022/10/02 14:51:38;;;;;;;;;;;;;;;;;;5026549;28;19913;-35
2022/10/02 14:54:03;;;;;;;;;;;;;;;;;;5020888;28;19948;-34
2022/10/02 14:56:29;;;;;;;;;;;;;;;;;;5023388;28;19966;-35
2022/10/02 14:58:54;;;;;;;;;;;;;;;;;;5025912;28;19917;-35
2022/10/02 15:01:20;;;;;;;;;;;;;;;;;;5027997;28;20007;-34
2022/10/02 15:03:46;;;;;;;;;;;;;;;;;;5030618;28;20386;-34
2022/10/02 15:06:11;;;;;;;;;;;;;;;;;;5026876;28;20371;-34
2022/10/02 15:08:36;;;;;;;;;;;;;;;;;;5026204;28;19932;-34
2022/10/02 15:11:01;;;;;;;;;;;;;;;;;;5025104;28;19924;-34
2022/10/02 15:13:27;;;;;;;;;;;;;;;;;;5027313;28;19913;-35
2022/10/02 15:17:53;;;;;;;;;;;;;;;;;;5027560;28;20400;-34
2022/10/02 15:18:37;;;;;;;;;;;;;;;;;;5026024;28;19928;-33
2022/10/02 15:21:02;;;;;;;;;;;;;;;;;;5026400;28;19917;-34
2022/10/02 15:23:27;;;;;;;;;;;;;;;;;;5028021;28;19920;-35
2022/10/02 15:25:53;;;;;;;;;;;;;;;;;;5028524;28;19917;-34
2022/10/02 15:28:18;;;;;;;;;;;;;;;;;;5028340;28;19913;-34
2022/10/02 15:30:43;;;;;;;;;;;;;;;;;;5025693;28;19920;-34
2022/10/02 15:33:08;;;;;;;;;;;;;;;;;;5027307;28;19920;-34
2022/10/02 15:35:33;;;;;;;;;;;;;;;;;;5028321;28;20367;-34
2022/10/02 15:37:59;;;;;;;;;;;;;;;;;;5024463;28;19913;-34
2022/10/02 15:40:24;;;;;;;;;;;;;;;;;;5025518;28;19913;-35
2022/10/02 15:42:50;;;;;;;;;;;;;;;;;;5025411;28;20302;-33
2022/10/02 15:45:16;;;;;;;;;;;;;;;;;;5020003;28;19920;-34
2022/10/02 15:47:41;;;;;;;;;;;;;;;;;;5020907;28;20072;-35
2022/10/02 15:50:06;;;;;;;;;;;;;;;;;;5022438;28;20028;-34
2022/10/02 15:52:32;;;;;;;;;;;;;;;;;;5021160;28;19917;-35
2022/10/02 15:54:57;;;;;;;;;;;;;;;;;;5022199;28;20286;-34
2022/10/02 15:57:22;;;;;;;;;;;;;;;;;;5022107;28;19913;-34
2022/10/02 15:59:47;;;;;;;;;;;;;;;;;;5021799;28;19921;-34
2022/10/02 16:02:12;;;;;;;;;;;;;;;;;;5022048;28;19921;-33
2022/10/02 16:04:38;;;;;;;;;;;;;;;;;;5021135;28;19921;-34
2022/10/02 16:07:03;;;;;;;;;;;;;;;;;;5024245;28;20426;-34
2022/10/02 16:09:28;;;;;;;;;;;;;;;;;;5021070;28;19925;-34
2022/10/02 16:11:53;;;;;;;;;;;;;;;;;;5021164;28;19921;-35
2022/10/02 16:14:19;;;;;;;;;;;;;;;;;;5021554;28;19913;-33
2022/10/02 16:16:44;;;;;;;;;;;;;;;;;;5021458;28;20146;-34
2022/10/02 16:19:10;;;;;;;;;;;;;;;;;;5019693;28;19925;-34
2022/10/02 16:21:35;;;;;;;;;;;;;;;;;;5020706;28;19970;-35
2022/10/02 16:24:01;;;;;;;;;;;;;;;;;;5019145;28;19976;-33
2022/10/02 16:26:26;;;;;;;;;;;;;;;;;;5020193;28;19913;-35
2022/10/02 16:28:51;;;;;;;;;;;;;;;;;;5021537;28;19978;-36
2022/10/02 16:31:16;;;;;;;;;;;;;;;;;;5021852;28;19917;-36
2022/10/02 16:33:41;;;;;;;;;;;;;;;;;;5018546;28;19922;-36
2022/10/02 16:36:08;;;;;;;;;;;;;;;;;;5019704;28;19932;-36
2022/10/02 16:38:35;;;;;;;;;;;;;;;;;;5017859;28;19917;-36
2022/10/02 16:41:00;;;;;;;;;;;;;;;;;;5021232;28;19923;-36
2022/10/02 16:43:25;;;;;;;;;;;;;;;;;;5023494;28;19917;-37
2022/10/02 16:45:50;;;;;;;;;;;;;;;;;;5020154;28;19921;-35